Time;durP1;ratioP1;P1;durP2;ratioP2;P2;SDS_P1;SDS_P2;PMS_P1;PMS_P2;Temp;Humidity;BMP_temperature;BMP_pressure;BME280_temperature;BME280_humidity;BME280_pressure;Samples;Min_cycle;Max_cycle;Signal;HPM_P1;HPM_P2
2022/10/01 00:01:12;;;;;;;7.72;4.30;;;14.30;73.80;;;;;;5116792;28;20476;-65
2022/10/01 00:03:39;;;;;;;7.07;3.80;;;14.40;74.00;;;;;;5115897;27;20034;-65
2022/10/01 00:06:13;;;;;;;8.07;4.20;;;14.30;74.20;;;;;;5115631;27;20046;-65
2022/10/01 00:08:41;;;;;;;6.57;3.78;;;14.30;74.40;;;;;;5123824;27;20015;-65
2022/10/01 00:11:15;;;;;;;6.75;3.80;;;14.30;74.40;;;;;;5121266;27;20035;-65
2022/10/01 00:13:42;;;;;;;7.10;4.13;;;14.30;74.60;;;;;;5116343;28;20036;-64
2022/10/01 00:16:10;;;;;;;7.63;3.80;;;14.30;74.70;;;;;;5115293;28;20035;-65
2022/10/01 00:18:41;;;;;;;7.10;4.15;;;14.20;74.70;;;;;;5115587;28;20031;-64
2022/10/01 00:21:08;;;;;;;6.35;3.78;;;14.20;75.00;;;;;;5115666;28;20042;-65
2022/10/01 00:23:34;;;;;;;8.68;3.97;;;14.20;75.10;;;;;;5116157;28;20055;-64
2022/10/01 00:26:19;;;;;;;7.50;3.90;;;14.20;75.80;;;;;;5116104;28;20444;-64
2022/10/01 00:28:47;;;;;;;8.35;3.97;;;14.10;75.40;;;;;;5115643;28;20026;-64
2022/10/01 00:31:14;;;;;;;7.90;4.13;;;14.10;75.50;;;;;;5115046;27;20030;-65
2022/10/01 00:33:41;;;;;;;7.13;3.90;;;14.10;75.60;;;;;;5131563;27;20120;-65
2022/10/01 00:36:08;;;;;;;6.63;3.83;;;14.10;75.70;;;;;;5114326;27;20043;-65
2022/10/01 00:38:35;;;;;;;8.63;4.10;;;14.10;75.80;;;;;;5116062;28;20028;-65
2022/10/01 00:41:01;;;;;;;8.38;3.92;;;14.10;75.90;;;;;;5115754;28;20108;-64
2022/10/01 00:43:32;;;;;;;8.05;4.05;;;14.10;76.00;;;;;;5130681;27;20368;-65
2022/10/01 00:46:27;;;;;;;8.63;3.72;;;14.00;76.10;;;;;;5115016;28;20038;-65
2022/10/01 00:49:07;;;;;;;7.18;3.60;;;14.00;76.20;;;;;;5113523;28;20059;-65
2022/10/01 00:51:47;;;;;;;6.88;4.00;;;14.00;76.30;;;;;;5111179;28;20100;-65
2022/10/01 00:54:22;;;;;;;8.43;4.30;;;14.00;76.40;;;;;;5113277;28;20034;-65
2022/10/01 00:56:52;;;;;;;6.97;4.13;;;14.00;76.50;;;;;;5097689;28;20467;-65
2022/10/01 00:59:18;;;;;;;9.52;4.43;;;13.90;76.60;;;;;;5115335;28;20112;-65
2022/10/01 01:01:43;;;;;;;7.60;3.92;;;14.00;76.80;;;;;;5114914;28;20061;-65
2022/10/01 01:04:15;;;;;;;6.53;3.72;;;14.00;76.90;;;;;;5111964;28;20409;-65
2022/10/01 01:06:42;;;;;;;;;;;14.00;76.90;;;;;;5122134;27;20031;-65
2022/10/01 01:09:08;;;;;;;6.88;3.40;;;14.00;76.60;;;;;;5118412;27;19915;-65
2022/10/01 01:12:00;;;;;;;7.13;3.72;;;14.00;76.70;;;;;;5114583;28;20405;-65
2022/10/01 01:14:42;;;;;;;7.15;3.45;;;14.00;76.80;;;;;;5086924;28;20039;-65
2022/10/01 01:17:18;;;;;;;7.15;4.13;;;14.00;76.90;;;;;;5106362;28;20487;-65
2022/10/01 01:20:19;;;;;;;7.10;3.60;;;14.00;77.20;;;;;;5114757;27;20353;-65
2022/10/01 01:22:58;;;;;;;7.53;3.40;;;14.00;77.30;;;;;;5071194;28;20033;-65
2022/10/01 01:25:34;;;;;;;6.57;3.60;;;13.90;77.40;;;;;;5073002;28;20198;-65
2022/10/01 01:28:18;;;;;;;6.95;3.75;;;13.90;77.40;;;;;;5072712;28;20549;-65
2022/10/01 01:30:46;;;;;;;7.00;3.63;;;13.90;77.60;;;;;;5073466;28;20055;-65
2022/10/01 01:33:20;;;;;;;7.63;3.83;;;13.90;77.60;;;;;;5073331;28;20124;-65
2022/10/01 01:35:54;;;;;;;9.10;4.28;;;13.80;77.80;;;;;;5071736;28;20048;-65
2022/10/01 01:38:26;;;;;;;7.00;3.50;;;13.80;78.10;;;;;;5067968;28;20568;-65
2022/10/01 01:40:55;;;;;;;6.32;3.60;;;13.80;78.20;;;;;;5072735;28;20032;-65
2022/10/01 01:43:32;;;;;;;6.95;3.50;;;13.80;78.10;;;;;;5072286;28;20041;-65
2022/10/01 01:46:00;;;;;;;7.68;3.80;;;13.80;78.30;;;;;;5072230;28;20548;-65
2022/10/01 01:48:29;;;;;;;8.27;4.25;;;13.80;78.30;;;;;;5072795;28;20032;-65
2022/10/01 01:51:13;;;;;;;6.13;3.42;;;13.80;78.40;;;;;;5072875;28;20076;-65
2022/10/01 01:53:39;;;;;;;6.65;3.13;;;13.80;78.50;;;;;;5070667;28;20039;-65
2022/10/01 01:56:06;;;;;;;6.57;3.92;;;13.80;78.50;;;;;;5081956;28;20039;-65
2022/10/01 01:58:34;;;;;;;6.88;3.45;;;13.80;78.60;;;;;;5113762;28;20031;-65
2022/10/01 02:01:00;;;;;;;7.40;3.53;;;13.80;78.60;;;;;;5115486;28;20317;-65
2022/10/01 02:03:28;;;;;;;6.28;2.92;;;13.80;78.70;;;;;;5114006;28;20344;-65
2022/10/01 02:06:22;;;;;;;6.53;3.40;;;13.80;78.80;;;;;;5127613;27;20020;-65
2022/10/01 02:09:00;;;;;;;5.75;2.70;;;13.90;78.90;;;;;;5113837;28;20497;-65
2022/10/01 02:11:37;;;;;;;7.25;3.60;;;13.80;78.80;;;;;;5114657;28;20027;-65
2022/10/01 02:14:08;;;;;;;8.75;3.38;;;13.80;78.90;;;;;;5115544;28;20012;-65
2022/10/01 02:17:00;;;;;;;5.28;2.67;;;13.80;79.00;;;;;;5113909;28;20047;-65
2022/10/01 02:19:54;;;;;;;5.53;2.75;;;13.80;79.00;;;;;;5114426;28;20161;-65
2022/10/01 02:22:27;;;;;;;4.45;2.20;;;13.80;78.90;;;;;;5113371;28;20030;-65
2022/10/01 02:25:04;;;;;;;5.70;2.60;;;13.80;79.00;;;;;;5114495;28;20031;-65
2022/10/01 02:27:35;;;;;;;5.32;2.25;;;13.80;79.10;;;;;;5113663;28;20352;-65
2022/10/01 02:30:06;;;;;;;5.75;2.70;;;13.80;79.20;;;;;;5114145;28;20126;-65
2022/10/01 02:32:36;;;;;;;6.05;2.80;;;13.80;79.30;;;;;;5114112;28;20023;-65
2022/10/01 02:35:06;;;;;;;5.90;2.55;;;13.70;79.30;;;;;;5130084;27;20079;-65
2022/10/01 02:37:34;;;;;;;4.63;2.08;;;13.70;79.40;;;;;;5113231;28;20364;-65
2022/10/01 02:40:02;;;;;;;5.15;2.20;;;13.70;79.40;;;;;;5114529;28;20047;-65
2022/10/01 02:42:29;;;;;;;4.78;2.17;;;13.70;79.60;;;;;;5130530;28;20027;-65
2022/10/01 02:45:01;;;;;;;3.97;1.90;;;13.70;79.70;;;;;;5114282;28;20023;-65
2022/10/01 02:47:39;;;;;;;3.65;1.63;;;13.70;79.70;;;;;;5112995;28;20367;-65
2022/10/01 02:50:07;;;;;;;4.30;2.10;;;13.70;79.80;;;;;;5115814;27;20031;-64
2022/10/01 02:52:40;;;;;;;4.85;2.00;;;13.70;79.90;;;;;;5116353;27;20572;-65
2022/10/01 02:55:18;;;;;;;4.82;2.17;;;13.70;79.90;;;;;;5116895;27;20530;-64
2022/10/01 02:57:44;;;;;;;4.90;1.90;;;13.70;80.00;;;;;;5117384;27;20028;-64
2022/10/01 03:00:15;;;;;;;4.35;1.90;;;13.70;80.00;;;;;;5117341;28;20372;-65
2022/10/01 03:02:41;;;;;;;4.05;1.90;;;13.70;80.20;;;;;;5116176;28;20042;-65
2022/10/01 03:05:07;;;;;;;3.67;1.42;;;13.70;80.20;;;;;;5117744;28;20114;-65
2022/10/01 03:07:34;;;;;;;3.35;1.60;;;13.70;80.20;;;;;;5115663;28;20039;-65
2022/10/01 03:10:01;;;;;;;4.20;1.65;;;13.70;80.30;;;;;;5117375;28;20035;-65
2022/10/01 03:12:27;;;;;;;3.53;1.58;;;13.70;80.40;;;;;;5117740;28;20119;-64
2022/10/01 03:14:52;;;;;;;3.17;1.40;;;13.80;80.40;;;;;;5117861;28;20059;-65
2022/10/01 03:17:18;;;;;;;3.58;1.35;;;13.80;80.50;;;;;;5117447;27;20044;-65
2022/10/01 03:19:44;;;;;;;2.42;1.45;;;13.80;80.50;;;;;;5116790;28;20110;-65
2022/10/01 03:22:13;;;;;;;3.35;1.50;;;13.80;80.40;;;;;;5109402;27;20126;-65
2022/10/01 03:24:39;;;;;;;2.42;1.30;;;13.80;80.50;;;;;;5123968;27;20400;-64
2022/10/01 03:27:05;;;;;;;3.33;1.40;;;13.80;80.50;;;;;;5118979;27;20058;-65
2022/10/01 03:29:31;;;;;;;3.45;1.67;;;13.90;80.60;;;;;;5117484;28;20051;-64
2022/10/01 03:31:56;;;;;;;2.53;1.50;;;13.80;80.70;;;;;;5116550;28;20100;-65
2022/10/01 03:34:22;;;;;;;3.00;1.48;;;13.80;80.70;;;;;;5117042;28;20054;-64
2022/10/01 03:36:49;;;;;;;2.88;1.30;;;13.80;80.80;;;;;;5121528;27;20040;-65
2022/10/01 03:39:15;;;;;;;3.40;1.40;;;13.80;80.90;;;;;;5124018;27;20028;-65
2022/10/01 03:41:41;;;;;;;2.80;1.40;;;13.80;81.00;;;;;;5114691;28;20066;-65
2022/10/01 03:44:06;;;;;;;3.28;1.38;;;13.80;81.00;;;;;;5116444;28;20344;-65
2022/10/01 03:46:32;;;;;;;3.15;1.38;;;13.90;81.10;;;;;;5122909;27;20024;-65
2022/10/01 03:48:59;;;;;;;2.97;1.50;;;13.90;81.10;;;;;;5117141;28;20034;-65
2022/10/01 03:51:29;;;;;;;1.98;1.20;;;13.90;81.20;;;;;;5116591;28;20352;-64
2022/10/01 03:53:58;;;;;;;2.53;1.30;;;13.90;81.20;;;;;;5116902;28;20044;-64
2022/10/01 03:56:24;;;;;;;3.10;1.48;;;13.90;81.30;;;;;;5092077;28;20091;-65
2022/10/01 03:58:50;;;;;;;2.10;1.23;;;13.80;81.30;;;;;;5115377;28;20120;-65
2022/10/01 04:01:16;;;;;;;3.00;1.35;;;13.90;81.40;;;;;;5116559;28;20471;-64
2022/10/01 04:03:42;;;;;;;3.05;1.50;;;13.90;81.50;;;;;;5115413;28;20059;-64
2022/10/01 04:06:08;;;;;;;3.28;1.58;;;13.90;81.50;;;;;;5115600;27;20024;-64
2022/10/01 04:08:34;;;;;;;3.10;1.60;;;13.90;81.50;;;;;;5116821;28;20061;-64
2022/10/01 04:11:00;;;;;;;2.67;1.25;;;13.90;81.60;;;;;;5116635;28;20027;-64
2022/10/01 04:13:26;;;;;;;3.80;1.40;;;13.90;81.60;;;;;;5115821;27;20047;-64
2022/10/01 04:15:52;;;;;;;1.98;1.30;;;13.90;81.70;;;;;;5116408;27;20043;-64
2022/10/01 04:18:20;;;;;;;2.17;1.25;;;13.90;81.70;;;;;;5115762;28;20034;-64
2022/10/01 04:20:46;;;;;;;2.40;1.40;;;13.90;81.70;;;;;;5116422;28;20043;-64
2022/10/01 04:23:12;;;;;;;2.42;1.30;;;13.90;81.70;;;;;;5116330;28;20039;-64
2022/10/01 04:25:38;;;;;;;2.67;1.20;;;13.90;81.70;;;;;;5114781;27;20093;-65
2022/10/01 04:28:06;;;;;;;2.67;1.33;;;13.90;81.80;;;;;;5114093;28;20096;-65
2022/10/01 04:30:35;;;;;;;3.75;1.30;;;14.00;81.90;;;;;;5114306;28;20035;-64
2022/10/01 04:33:01;;;;;;;2.33;1.30;;;13.90;81.90;;;;;;5115906;28;20031;-64
2022/10/01 04:35:28;;;;;;;2.72;1.38;;;14.00;82.00;;;;;;5114639;28;20147;-64
2022/10/01 04:38:00;;;;;;;2.63;1.40;;;14.00;82.00;;;;;;5138373;27;20042;-65
2022/10/01 04:40:26;;;;;;;1.67;1.15;;;14.00;82.10;;;;;;5121629;27;20031;-65
2022/10/01 04:42:52;;;;;;;3.53;1.50;;;14.00;82.00;;;;;;5115022;28;20410;-65
2022/10/01 04:45:18;;;;;;;2.45;1.15;;;14.00;82.00;;;;;;5115607;28;20027;-65
2022/10/01 04:47:52;;;;;;;2.47;1.30;;;14.00;82.70;;;;;;5115737;28;20466;-65
2022/10/01 04:50:19;;;;;;;2.92;1.65;;;14.10;82.20;;;;;;5122254;27;20416;-65
2022/10/01 04:52:49;;;;;;;4.10;1.90;;;14.00;82.10;;;;;;5137738;27;20107;-65
2022/10/01 04:55:15;;;;;;;3.15;1.30;;;14.10;82.20;;;;;;5115550;28;20028;-65
2022/10/01 04:57:42;;;;;;;2.53;1.30;;;14.10;82.20;;;;;;5113881;28;20352;-65
2022/10/01 05:00:11;;;;;;;2.95;1.40;;;14.10;82.20;;;;;;5115773;28;20023;-65
2022/10/01 05:02:37;;;;;;;3.63;1.42;;;14.10;82.40;;;;;;5115144;27;20027;-65
2022/10/01 05:05:04;;;;;;;2.55;1.40;;;14.10;82.30;;;;;;5111948;28;20046;-65
2022/10/01 05:07:30;;;;;;;2.58;1.23;;;14.10;82.30;;;;;;5117922;27;20084;-65
2022/10/01 05:09:56;;;;;;;2.58;1.30;;;14.10;82.30;;;;;;5113962;28;20027;-66
2022/10/01 05:12:24;;;;;;;2.72;1.30;;;14.10;82.40;;;;;;5113084;28;20172;-65
2022/10/01 05:14:51;;;;;;;3.50;1.50;;;14.10;82.40;;;;;;5112515;28;20168;-65
2022/10/01 05:17:18;;;;;;;5.07;1.25;;;14.20;82.40;;;;;;5112427;28;20040;-65
2022/10/01 05:19:44;;;;;;;2.88;1.42;;;14.20;82.40;;;;;;5112969;28;20023;-65
2022/10/01 05:22:09;;;;;;;2.05;1.20;;;14.20;82.50;;;;;;5113472;28;20031;-66
2022/10/01 05:24:35;;;;;;;2.95;1.55;;;14.20;82.60;;;;;;5111839;28;20035;-65
2022/10/01 05:27:01;;;;;;;3.00;1.30;;;14.10;82.60;;;;;;5110819;27;20034;-65
2022/10/01 05:29:26;;;;;;;3.28;1.52;;;14.20;82.70;;;;;;5113861;28;20030;-66
2022/10/01 05:31:52;;;;;;;2.95;1.50;;;14.20;82.80;;;;;;5111215;28;20486;-65
2022/10/01 05:34:17;;;;;;;3.50;1.27;;;14.20;82.80;;;;;;5112618;28;20394;-65
2022/10/01 05:36:43;;;;;;;4.35;1.58;;;14.20;82.90;;;;;;5113679;27;20063;-65
2022/10/01 05:39:09;;;;;;;2.95;1.40;;;14.20;82.90;;;;;;5115153;28;20020;-65
2022/10/01 05:41:34;;;;;;;3.85;1.52;;;14.20;83.00;;;;;;5112650;28;20024;-65
2022/10/01 05:44:01;;;;;;;3.53;1.63;;;14.20;83.00;;;;;;5109599;28;20032;-65
2022/10/01 05:46:27;;;;;;;3.22;1.73;;;14.20;83.00;;;;;;5110460;28;20055;-65
2022/10/01 05:48:52;;;;;;;3.25;1.63;;;14.20;83.00;;;;;;5111295;28;20062;-65
2022/10/01 05:51:18;;;;;;;3.75;1.63;;;14.20;83.00;;;;;;5112492;28;20044;-65
2022/10/01 05:53:47;;;;;;;4.05;1.80;;;14.30;83.10;;;;;;5122578;28;20106;-65
2022/10/01 05:56:13;;;;;;;4.30;2.17;;;14.30;83.20;;;;;;5116090;27;20035;-65
2022/10/01 05:58:39;;;;;;;3.67;1.90;;;14.30;83.20;;;;;;5112699;28;20106;-65
2022/10/01 06:01:05;;;;;;;3.95;2.08;;;14.30;83.30;;;;;;5130652;28;20110;-65
2022/10/01 06:03:31;;;;;;;4.47;2.20;;;14.30;83.20;;;;;;5112799;28;20351;-65
2022/10/01 06:05:56;;;;;;;4.40;1.80;;;14.30;83.30;;;;;;5112606;28;20026;-65
2022/10/01 06:08:22;;;;;;;4.78;2.03;;;14.30;83.30;;;;;;5116349;28;20096;-65
2022/10/01 06:10:48;;;;;;;4.65;2.00;;;14.30;83.40;;;;;;5113188;28;20023;-65
2022/10/01 06:13:16;;;;;;;4.00;2.35;;;14.30;83.40;;;;;;5114589;28;20035;-65
2022/10/01 06:15:44;;;;;;;5.90;2.40;;;14.30;83.40;;;;;;5112637;28;20085;-65
2022/10/01 06:18:11;;;;;;;4.43;2.30;;;14.30;83.50;;;;;;5113214;28;20038;-65
2022/10/01 06:20:38;;;;;;;5.65;2.22;;;14.40;83.60;;;;;;5113631;28;20468;-65
2022/10/01 06:23:06;;;;;;;6.20;2.20;;;14.40;83.60;;;;;;5113116;28;20034;-65
2022/10/01 06:25:33;;;;;;;4.93;2.35;;;14.40;83.60;;;;;;5116079;28;20032;-65
2022/10/01 06:28:00;;;;;;;5.72;2.50;;;14.40;83.70;;;;;;5118452;28;20168;-65
2022/10/01 06:30:28;;;;;;;4.05;2.35;;;14.40;83.70;;;;;;5117764;28;20036;-65
2022/10/01 06:33:11;;;;;;;4.88;2.78;;;14.40;83.80;;;;;;5116706;27;20040;-65
2022/10/01 06:35:48;;;;;;;5.88;2.63;;;14.40;83.80;;;;;;5117223;28;20065;-66
2022/10/01 06:38:16;;;;;;;4.65;2.60;;;14.50;83.70;;;;;;5115516;28;20024;-64
2022/10/01 06:40:41;;;;;;;5.40;2.83;;;14.50;83.60;;;;;;5114943;28;20026;-64
2022/10/01 06:43:08;;;;;;;5.45;3.22;;;14.60;83.50;;;;;;5114223;28;20027;-65
2022/10/01 06:45:41;;;;;;;5.70;3.10;;;14.60;83.40;;;;;;5116435;28;20395;-65
2022/10/01 06:48:13;;;;;;;7.20;3.35;;;14.70;83.50;;;;;;5117502;28;20505;-64
2022/10/01 06:50:40;;;;;;;7.88;3.50;;;14.70;83.40;;;;;;5131924;27;20038;-64
2022/10/01 06:53:06;;;;;;;6.90;3.78;;;14.80;83.40;;;;;;5122198;27;20027;-64
2022/10/01 06:55:33;;;;;;;6.22;3.75;;;14.80;83.40;;;;;;5118061;28;20444;-64
2022/10/01 06:58:05;;;;;;;6.68;3.88;;;14.80;83.40;;;;;;5134351;27;20337;-64
2022/10/01 07:00:31;;;;;;;;;;;14.90;83.50;;;;;;5116351;28;20034;-64
2022/10/01 07:02:57;;;;;;;6.15;3.60;;;14.90;83.90;;;;;;5116634;28;20267;-65
2022/10/01 07:05:24;;;;;;;7.72;4.32;;;14.90;83.20;;;;;;5116665;27;20027;-64
2022/10/01 07:07:50;;;;;;;8.57;4.53;;;14.90;83.20;;;;;;5128543;27;20110;-64
2022/10/01 07:10:20;;;;;;;6.80;4.60;;;15.00;83.30;;;;;;5130333;27;20034;-65
2022/10/01 07:12:49;;;;;;;9.05;4.63;;;15.00;83.20;;;;;;5116723;28;20535;-65
2022/10/01 07:15:17;;;;;;;8.80;5.03;;;15.10;83.30;;;;;;5117358;28;20034;-64
2022/10/01 07:17:45;;;;;;;8.48;4.75;;;15.10;83.20;;;;;;5116441;28;20031;-64
2022/10/01 07:20:11;;;;;;;7.07;4.82;;;15.20;83.20;;;;;;5115343;28;20030;-65
2022/10/01 07:22:37;;;;;;;9.57;5.13;;;15.20;83.10;;;;;;5127999;27;20106;-65
2022/10/01 07:25:03;;;;;;;8.25;5.07;;;15.30;83.20;;;;;;5116902;28;20111;-64
2022/10/01 07:27:29;;;;;;;8.55;5.50;;;15.30;83.20;;;;;;5115467;28;20031;-64
2022/10/01 07:29:57;;;;;;;8.95;6.18;;;15.20;83.30;;;;;;5115486;28;20128;-65
2022/10/01 07:32:24;;;;;;;7.45;5.90;;;15.30;83.50;;;;;;5116899;27;20031;-64
2022/10/01 07:34:49;;;;;;;8.88;5.38;;;15.30;83.50;;;;;;5116300;28;20390;-63
2022/10/01 07:37:15;;;;;;;10.30;6.30;;;15.30;83.50;;;;;;5115486;28;20020;-63
2022/10/01 07:39:41;;;;;;;8.32;5.95;;;15.40;83.50;;;;;;5123995;27;20098;-63
2022/10/01 07:42:07;;;;;;;8.10;5.88;;;15.40;83.40;;;;;;5116747;28;20050;-63
2022/10/01 07:44:32;;;;;;;8.25;6.03;;;15.50;83.30;;;;;;5114697;28;20046;-63
2022/10/01 07:46:58;;;;;;;8.90;6.32;;;15.50;83.30;;;;;;5116640;28;20096;-63
2022/10/01 07:49:24;;;;;;;8.50;5.88;;;15.50;83.40;;;;;;5117049;28;20034;-64
2022/10/01 07:51:52;;;;;;;9.00;6.57;;;15.50;83.50;;;;;;5117431;28;20103;-63
2022/10/01 07:54:19;;;;;;;10.77;6.00;;;15.50;83.60;;;;;;5101767;28;20043;-63
2022/10/01 07:56:44;;;;;;;9.15;6.32;;;15.50;83.60;;;;;;5117242;27;20042;-64
2022/10/01 07:59:10;;;;;;;9.80;6.63;;;15.50;83.60;;;;;;5116756;27;20099;-63
2022/10/01 08:01:36;;;;;;;10.43;6.43;;;15.60;83.60;;;;;;5116890;28;20042;-63
2022/10/01 08:05:16;;;;;;;8.80;7.18;;;15.70;83.60;;;;;;5115634;28;20015;-63
2022/10/01 08:06:50;;;;;;;10.20;6.68;;;15.70;83.60;;;;;;5113061;28;20024;-64
2022/10/01 08:09:16;;;;;;;11.27;6.93;;;15.70;83.60;;;;;;5117004;28;20089;-63
2022/10/01 08:11:41;;;;;;;9.48;6.57;;;15.60;83.60;;;;;;5115809;28;20024;-63
2022/10/01 08:14:07;;;;;;;10.90;7.10;;;15.70;83.70;;;;;;5127868;27;20067;-62
2022/10/01 08:16:33;;;;;;;9.77;6.70;;;15.80;83.60;;;;;;5116631;28;20051;-63
2022/10/01 08:18:59;;;;;;;10.65;6.95;;;15.80;83.60;;;;;;5116453;28;20080;-62
2022/10/01 08:21:27;;;;;;;9.90;6.97;;;15.80;83.60;;;;;;5117128;28;20031;-63
2022/10/01 08:23:52;;;;;;;9.77;7.70;;;15.80;83.60;;;;;;5116111;28;20024;-63
2022/10/01 08:26:18;;;;;;;10.35;7.30;;;15.80;83.70;;;;;;5116230;28;20148;-63
2022/10/01 08:28:44;;;;;;;11.90;7.72;;;15.80;83.80;;;;;;5115850;28;20020;-63
2022/10/01 08:31:09;;;;;;;10.38;7.28;;;15.70;83.80;;;;;;5119728;27;20020;-62
2022/10/01 08:33:37;;;;;;;11.00;7.97;;;15.70;84.00;;;;;;5116701;28;20506;-62
2022/10/01 08:36:06;;;;;;;10.73;8.18;;;15.70;84.10;;;;;;5116433;28;20028;-63
2022/10/01 08:38:32;;;;;;;12.15;8.80;;;15.70;84.10;;;;;;5117008;28;20039;-63
2022/10/01 08:41:06;;;;;;;11.48;7.75;;;15.70;84.10;;;;;;5116439;27;20023;-62
2022/10/01 08:43:37;;;;;;;11.27;7.80;;;15.80;84.30;;;;;;5116433;28;20042;-62
2022/10/01 08:46:11;;;;;;;13.93;8.48;;;15.70;84.30;;;;;;5118230;27;20448;-62
2022/10/01 08:48:42;;;;;;;11.13;8.23;;;15.70;84.30;;;;;;5102642;28;20344;-62
2022/10/01 08:51:28;;;;;;;10.88;8.02;;;15.70;84.40;;;;;;5116434;28;20031;-62
2022/10/01 08:54:15;;;;;;;10.40;7.82;;;15.90;84.30;;;;;;5116490;28;20324;-63
2022/10/01 08:56:45;;;;;;;12.05;7.78;;;16.20;83.70;;;;;;5115885;28;20152;-62
2022/10/01 08:59:39;;;;;;;11.30;8.40;;;16.50;83.30;;;;;;5118935;27;20037;-63
2022/10/01 09:02:14;;;;;;;10.20;7.50;;;16.60;83.00;;;;;;5129526;27;20448;-62
2022/10/01 09:04:40;;;;;;;9.73;7.65;;;16.90;82.50;;;;;;5114873;28;20043;-62
2022/10/01 09:07:44;;;;;;;10.05;7.70;;;16.90;82.30;;;;;;5115629;28;20035;-63
2022/10/01 09:10:21;;;;;;;9.30;6.93;;;16.80;82.60;;;;;;5112658;28;20039;-63
2022/10/01 09:13:03;;;;;;;9.85;6.82;;;16.60;82.80;;;;;;5112929;28;20035;-62
2022/10/01 09:16:00;;;;;;;9.32;6.70;;;16.50;83.00;;;;;;5109183;27;20042;-62
2022/10/01 09:18:53;;;;;;;8.77;5.63;;;16.40;83.90;;;;;;5127060;27;20032;-63
2022/10/01 09:21:46;;;;;;;9.00;6.05;;;16.30;83.50;;;;;;5110472;28;20436;-63
2022/10/01 09:24:37;;;;;;;8.25;5.18;;;16.20;83.60;;;;;;5109537;27;20030;-63
2022/10/01 09:27:16;;;;;;;9.43;5.90;;;16.30;83.70;;;;;;5102939;28;20724;-63
2022/10/01 09:30:05;;;;;;;8.70;5.75;;;16.20;83.80;;;;;;5109381;28;20030;-63
2022/10/01 09:32:44;;;;;;;12.27;6.28;;;16.10;83.90;;;;;;5098997;28;20038;-63
2022/10/01 09:35:32;;;;;;;10.93;6.38;;;16.00;84.20;;;;;;5110593;28;20063;-64
2022/10/01 09:38:22;;;;;;;11.68;5.97;;;16.00;84.50;;;;;;5110769;27;20038;-63
2022/10/01 09:40:53;;;;;;;9.20;5.47;;;15.90;84.50;;;;;;5111784;28;20047;-63
2022/10/01 09:43:24;;;;;;;9.45;4.97;;;15.90;84.70;;;;;;5112283;27;20090;-63
2022/10/01 09:45:50;;;;;;;10.43;5.27;;;15.80;84.80;;;;;;5111154;28;20051;-63
2022/10/01 09:48:43;;;;;;;8.52;4.65;;;15.80;84.80;;;;;;5110686;28;20024;-63
2022/10/01 09:51:15;;;;;;;6.65;3.90;;;15.90;85.10;;;;;;5112094;27;20447;-63
2022/10/01 09:53:44;;;;;;;8.85;3.70;;;15.90;85.10;;;;;;5126925;27;20074;-63
2022/10/01 09:56:25;;;;;;;7.45;3.55;;;16.00;85.00;;;;;;5108184;28;20031;-63
2022/10/01 09:58:57;;;;;;;8.00;3.72;;;16.10;84.90;;;;;;5112436;28;20077;-63
2022/10/01 10:01:48;;;;;;;7.10;3.08;;;16.30;84.70;;;;;;5113348;28;20023;-64
2022/10/01 10:04:19;;;;;;;9.10;2.90;;;16.60;84.20;;;;;;5113289;28;20118;-63
2022/10/01 10:06:46;;;;;;;8.10;2.47;;;16.70;83.80;;;;;;5114346;28;20418;-64
2022/10/01 10:09:23;;;;;;;5.20;2.13;;;16.80;83.70;;;;;;5113787;28;20085;-64
2022/10/01 10:11:49;;;;;;;6.85;2.00;;;16.90;83.60;;;;;;5112917;28;20313;-64
2022/10/01 10:14:19;;;;;;;7.15;2.00;;;17.20;83.20;;;;;;5112522;27;20027;-63
2022/10/01 10:16:47;;;;;;;6.60;1.63;;;17.60;82.60;;;;;;5112469;28;20100;-63
2022/10/01 10:19:40;;;;;;;6.15;1.73;;;17.90;82.00;;;;;;5114275;28;20033;-63
2022/10/01 10:22:22;;;;;;;5.68;1.90;;;18.10;81.50;;;;;;5110977;27;20044;-63
2022/10/01 10:24:47;;;;;;;5.60;2.05;;;18.40;81.00;;;;;;5114234;28;20061;-64
2022/10/01 10:27:21;;;;;;;7.85;2.00;;;18.50;80.50;;;;;;5111770;27;20454;-63
2022/10/01 10:29:47;;;;;;;6.85;1.73;;;18.70;80.20;;;;;;5113713;28;20051;-63
2022/10/01 10:32:40;;;;;;;6.60;1.88;;;18.90;79.80;;;;;;5112485;28;20517;-63
2022/10/01 10:35:12;;;;;;;7.10;1.77;;;19.10;79.50;;;;;;5109967;28;20460;-63
2022/10/01 10:37:44;;;;;;;8.20;2.35;;;19.10;79.40;;;;;;5111597;28;20364;-64
2022/10/01 10:40:20;;;;;;;6.30;1.95;;;19.10;79.30;;;;;;5112726;28;20058;-64
2022/10/01 10:42:52;;;;;;;7.80;1.88;;;19.10;79.10;;;;;;5111786;27;20456;-64
2022/10/01 10:45:28;;;;;;;6.57;1.67;;;19.00;79.00;;;;;;5129588;27;20626;-63
2022/10/01 10:47:54;;;;;;;6.13;1.80;;;18.80;79.30;;;;;;5114786;27;20032;-63
2022/10/01 10:50:29;;;;;;;7.63;2.10;;;18.60;79.60;;;;;;5113624;27;20549;-63
2022/10/01 10:52:55;;;;;;;7.38;2.40;;;18.40;80.00;;;;;;5111601;27;20106;-64
2022/10/01 10:55:23;;;;;;;9.02;2.22;;;18.30;80.50;;;;;;5113979;27;20455;-63
2022/10/01 10:57:50;;;;;;;11.63;2.15;;;18.20;80.50;;;;;;5113001;27;20024;-63
2022/10/01 11:00:18;;;;;;;9.57;2.20;;;18.10;80.70;;;;;;5111979;27;20028;-62
2022/10/01 11:02:58;;;;;;;9.60;1.92;;;17.90;80.90;;;;;;5113642;27;20394;-63
2022/10/01 11:05:28;;;;;;;6.53;1.98;;;17.70;81.10;;;;;;5112897;27;20038;-63
2022/10/01 11:07:58;;;;;;;13.05;2.08;;;17.50;81.40;;;;;;5112092;28;20173;-63
2022/10/01 11:10:30;;;;;;;7.78;1.83;;;17.40;81.50;;;;;;5112230;27;20027;-63
2022/10/01 11:12:56;;;;;;;8.30;2.00;;;17.20;81.60;;;;;;5114382;27;20414;-63
2022/10/01 11:15:43;;;;;;;9.60;2.30;;;17.00;81.60;;;;;;5113257;27;20024;-63
2022/10/01 11:18:24;;;;;;;8.25;2.10;;;16.90;81.70;;;;;;5071209;28;20036;-63
2022/10/01 11:20:50;;;;;;;;;;;16.80;81.80;;;;;;5067121;28;20032;-63
2022/10/01 11:23:16;;;;;;;9.73;2.13;;;16.70;81.90;;;;;;5072577;28;20010;-63
2022/10/01 11:26:00;;;;;;;11.30;2.10;;;16.70;82.00;;;;;;5073300;28;20120;-63
2022/10/01 11:28:48;;;;;;;8.70;1.70;;;16.90;81.70;;;;;;5086669;28;20123;-63
2022/10/01 11:31:23;;;;;;;7.97;2.05;;;17.20;81.10;;;;;;5074036;28;20028;-63
2022/10/01 11:34:09;;;;;;;9.18;1.85;;;17.50;80.30;;;;;;5071698;28;20039;-63
2022/10/01 11:36:46;;;;;;;8.65;1.80;;;17.70;79.90;;;;;;5073200;28;20475;-63
2022/10/01 11:39:19;;;;;;;11.38;2.15;;;17.90;79.40;;;;;;5071113;28;20099;-63
2022/10/01 11:42:11;;;;;;;6.38;1.92;;;18.10;79.00;;;;;;5074300;28;20051;-64
2022/10/01 11:44:51;;;;;;;9.40;1.88;;;18.20;78.20;;;;;;5070953;28;20034;-63
2022/10/01 11:47:32;;;;;;;7.10;1.75;;;18.30;77.60;;;;;;5073135;28;20041;-63
2022/10/01 11:50:24;;;;;;;7.78;2.15;;;18.30;77.50;;;;;;5074669;28;20365;-63
2022/10/01 11:53:14;;;;;;;8.82;1.85;;;18.20;77.50;;;;;;5069554;28;20097;-63
2022/10/01 11:59:12;;;;;;;8.10;1.88;;;17.90;77.60;;;;;;5070953;28;20044;-62
2022/10/01 12:01:46;;;;;;;5.93;1.70;;;17.80;77.30;;;;;;5068812;28;20413;-62
2022/10/01 12:04:16;;;;;;;9.05;1.77;;;17.70;77.40;;;;;;5069725;28;20044;-62
2022/10/01 12:07:19;;;;;;;7.65;1.42;;;17.70;77.10;;;;;;5069024;28;20025;-62
2022/10/01 12:09:54;;;;;;;10.02;2.08;;;17.80;76.80;;;;;;5067436;28;20040;-62
2022/10/01 12:12:28;;;;;;;7.38;1.90;;;17.90;76.50;;;;;;5070405;28;20028;-63
2022/10/01 12:15:10;;;;;;;7.80;2.10;;;18.00;76.10;;;;;;5064892;28;20032;-63
2022/10/01 12:17:48;;;;;;;6.88;1.73;;;18.10;76.40;;;;;;5097069;28;20054;-62
2022/10/01 12:20:28;;;;;;;7.95;1.73;;;18.10;75.40;;;;;;5104631;27;20031;-62
2022/10/01 12:22:55;;;;;;;11.25;1.83;;;18.20;75.10;;;;;;5104427;27;20152;-63
2022/10/01 12:25:27;;;;;;;12.50;2.10;;;18.20;74.70;;;;;;5106680;27;20028;-63
2022/10/01 12:28:09;;;;;;;8.93;1.77;;;18.30;74.40;;;;;;5105573;27;20080;-63
2022/10/01 12:31:12;;;;;;;7.72;1.85;;;18.40;74.10;;;;;;5106186;27;20122;-64
2022/10/01 12:34:06;;;;;;;7.65;2.00;;;18.50;74.10;;;;;;5049249;28;20120;-63
2022/10/01 12:36:35;;;;;;;8.25;1.63;;;18.50;74.30;;;;;;5046417;28;21448;-63
2022/10/01 12:39:17;;;;;;;6.35;1.50;;;18.50;74.70;;;;;;5047833;28;20048;-64
2022/10/01 12:41:49;;;;;;;6.20;1.63;;;18.40;74.60;;;;;;5049612;28;20044;-63
2022/10/01 12:44:27;;;;;;;6.30;1.48;;;18.20;74.60;;;;;;5048833;28;20344;-63
2022/10/01 12:47:06;;;;;;;6.43;1.48;;;18.00;74.80;;;;;;5047772;28;20461;-63
2022/10/01 12:49:40;;;;;;;7.90;1.88;;;17.70;75.20;;;;;;5052510;28;20032;-63
2022/10/01 12:52:45;;;;;;;7.43;1.45;;;17.60;75.60;;;;;;5044760;28;20383;-63
2022/10/01 12:55:29;;;;;;;6.68;1.63;;;17.60;75.90;;;;;;5014655;28;20033;-63
2022/10/01 12:58:11;;;;;;;6.38;1.80;;;17.50;76.10;;;;;;5047500;28;20365;-64
2022/10/01 13:00:59;;;;;;;8.02;2.10;;;17.40;76.30;;;;;;5047832;28;20039;-64
2022/10/01 13:03:35;;;;;;;8.20;1.92;;;17.40;76.50;;;;;;5045621;28;20029;-63
2022/10/01 13:06:39;;;;;;;7.85;2.08;;;17.40;76.70;;;;;;5043766;28;20657;-64
2022/10/01 13:09:19;;;;;;;9.15;2.10;;;17.40;76.70;;;;;;5044036;28;20350;-64
2022/10/01 13:12:04;;;;;;;8.93;1.83;;;17.50;76.60;;;;;;5108039;27;20035;-64
2022/10/01 13:14:32;;;;;;;10.18;2.30;;;17.50;76.70;;;;;;5109393;28;20031;-64